To NAV CANADA Home Page Login to a new session Search on AWWS site Feedback and Comments Disclaimer Vers la page française équivalente Tips FAQ What's new on the site To the Forecasts and Observations / NOTAM section To "File a Flight Plan" website Publications and other links Update of the User's profile FIC Telephone Numbers My Weather Data Folder Route Weather Data Regional Weather Data Local Weather Data To the Forecasts and Observations / NOTAM section
Request Generated 11/26/2015 at 00:33:18 UTC . Weather information available at that time is displayed.



METAR CYZX 260000Z 00000KT 15SM SKC M05/M07 A3092 RMK WNDY HILL 23005KT SLP473=
METAR CYZX 252300Z 00000KT 15SM SKC M04/M07 A3090 RMK WNDY HILL 23004KT SLP467=
METAR CYZX 252200Z 00000KT 15SM SKC M01/M08 A3087 RMK WNDY HILL 23004KT SLP456=

TAF CYZX 252330Z 2600/2624 VRB03KT P6SM SKC
FM261500 20008KT P6SM SCT030 TEMPO 2621/2624 BKN030
Your time UTC time
Weather data provided by Environment Canada and NAV CANADA